sensor_id;sensor_type;location;lat;lon;timestamp;P1;durP1;ratioP1;P2;durP2;ratioP2
58214;SDS011;44011;52.218;1.480;2022-09-09T00:04:26;7.50;;;3.45;;
58214;SDS011;44011;52.218;1.480;2022-09-09T00:10:30;14.30;;;3.00;;
58214;SDS011;44011;52.218;1.480;2022-09-09T00:12:50;11.65;;;2.95;;
58214;SDS011;44011;52.218;1.480;2022-09-09T00:15:21;12.20;;;2.95;;
58214;SDS011;44011;52.218;1.480;2022-09-09T00:18:02;12.45;;;2.65;;
58214;SDS011;44011;52.218;1.480;2022-09-09T00:23:44;10.40;;;2.53;;
58214;SDS011;44011;52.218;1.480;2022-09-09T00:29:10;6.95;;;2.50;;
58214;SDS011;44011;52.218;1.480;2022-09-09T00:31:38;3.60;;;2.33;;
58214;SDS011;44011;52.218;1.480;2022-09-09T00:34:13;8.65;;;2.40;;
58214;SDS011;44011;52.218;1.480;2022-09-09T00:36:42;6.88;;;2.70;;
58214;SDS011;44011;52.218;1.480;2022-09-09T00:39:31;8.75;;;2.33;;
58214;SDS011;44011;52.218;1.480;2022-09-09T00:42:11;13.10;;;2.45;;
58214;SDS011;44011;52.218;1.480;2022-09-09T00:44:52;6.05;;;2.78;;
58214;SDS011;44011;52.218;1.480;2022-09-09T00:54:50;5.88;;;1.60;;
58214;SDS011;44011;52.218;1.480;2022-09-09T01:08:00;10.93;;;2.55;;
58214;SDS011;44011;52.218;1.480;2022-09-09T01:13:22;6.55;;;2.50;;
58214;SDS011;44011;52.218;1.480;2022-09-09T01:15:49;9.38;;;3.15;;
58214;SDS011;44011;52.218;1.480;2022-09-09T01:18:17;6.88;;;2.28;;
58214;SDS011;44011;52.218;1.480;2022-09-09T01:24:27;6.15;;;2.40;;
58214;SDS011;44011;52.218;1.480;2022-09-09T01:26:56;7.90;;;2.38;;
58214;SDS011;44011;52.218;1.480;2022-09-09T01:29:24;8.48;;;2.45;;
58214;SDS011;44011;52.218;1.480;2022-09-09T01:31:56;7.70;;;2.70;;
58214;SDS011;44011;52.218;1.480;2022-09-09T01:34:25;10.30;;;2.38;;
58214;SDS011;44011;52.218;1.480;2022-09-09T01:36:55;6.13;;;2.30;;
58214;SDS011;44011;52.218;1.480;2022-09-09T01:39:32;8.32;;;2.83;;
58214;SDS011;44011;52.218;1.480;2022-09-09T01:41:58;10.27;;;2.83;;
58214;SDS011;44011;52.218;1.480;2022-09-09T01:44:24;8.82;;;2.65;;
58214;SDS011;44011;52.218;1.480;2022-09-09T01:46:50;14.25;;;3.03;;
58214;SDS011;44011;52.218;1.480;2022-09-09T01:49:16;13.48;;;2.95;;
58214;SDS011;44011;52.218;1.480;2022-09-09T01:51:42;8.27;;;2.90;;
58214;SDS011;44011;52.218;1.480;2022-09-09T01:54:08;9.27;;;3.05;;
58214;SDS011;44011;52.218;1.480;2022-09-09T01:59:44;5.97;;;2.20;;
58214;SDS011;44011;52.218;1.480;2022-09-09T02:07:24;8.90;;;2.38;;
58214;SDS011;44011;52.218;1.480;2022-09-09T02:12:53;9.15;;;2.72;;
58214;SDS011;44011;52.218;1.480;2022-09-09T02:15:32;10.88;;;2.97;;
58214;SDS011;44011;52.218;1.480;2022-09-09T02:18:02;10.40;;;2.35;;
58214;SDS011;44011;52.218;1.480;2022-09-09T02:20:31;6.90;;;2.05;;
58214;SDS011;44011;52.218;1.480;2022-09-09T02:22:58;4.60;;;2.20;;
58214;SDS011;44011;52.218;1.480;2022-09-09T02:25:25;7.13;;;2.50;;
58214;SDS011;44011;52.218;1.480;2022-09-09T02:27:52;6.32;;;2.05;;
58214;SDS011;44011;52.218;1.480;2022-09-09T02:30:18;7.22;;;2.70;;
58214;SDS011;44011;52.218;1.480;2022-09-09T02:32:45;9.82;;;2.35;;
58214;SDS011;44011;52.218;1.480;2022-09-09T02:35:13;8.15;;;2.55;;
58214;SDS011;44011;52.218;1.480;2022-09-09T02:37:41;7.88;;;2.67;;
58214;SDS011;44011;52.218;1.480;2022-09-09T02:40:09;14.52;;;3.13;;
58214;SDS011;44011;52.218;1.480;2022-09-09T02:42:43;8.73;;;2.65;;
58214;SDS011;44011;52.218;1.480;2022-09-09T02:45:10;11.38;;;3.00;;
58214;SDS011;44011;52.218;1.480;2022-09-09T02:47:49;6.90;;;2.35;;
58214;SDS011;44011;52.218;1.480;2022-09-09T02:55:41;4.03;;;2.67;;
58214;SDS011;44011;52.218;1.480;2022-09-09T02:58:14;4.40;;;2.10;;
58214;SDS011;44011;52.218;1.480;2022-09-09T03:00:42;11.20;;;2.78;;
58214;SDS011;44011;52.218;1.480;2022-09-09T03:03:09;8.75;;;3.00;;
58214;SDS011;44011;52.218;1.480;2022-09-09T03:05:34;3.78;;;2.17;;
58214;SDS011;44011;52.218;1.480;2022-09-09T03:08:01;6.72;;;2.50;;
58214;SDS011;44011;52.218;1.480;2022-09-09T03:10:27;7.50;;;2.47;;
58214;SDS011;44011;52.218;1.480;2022-09-09T03:12:52;7.78;;;2.72;;
58214;SDS011;44011;52.218;1.480;2022-09-09T03:15:18;5.25;;;2.55;;
58214;SDS011;44011;52.218;1.480;2022-09-09T03:17:43;6.88;;;2.20;;
58214;SDS011;44011;52.218;1.480;2022-09-09T03:20:09;8.73;;;2.53;;
58214;SDS011;44011;52.218;1.480;2022-09-09T03:22:34;6.97;;;2.70;;
58214;SDS011;44011;52.218;1.480;2022-09-09T03:25:00;9.27;;;2.58;;
58214;SDS011;44011;52.218;1.480;2022-09-09T03:27:28;6.53;;;3.08;;
58214;SDS011;44011;52.218;1.480;2022-09-09T03:29:53;6.78;;;3.30;;
58214;SDS011;44011;52.218;1.480;2022-09-09T03:32:19;10.63;;;3.47;;
58214;SDS011;44011;52.218;1.480;2022-09-09T03:34:47;10.00;;;3.08;;
58214;SDS011;44011;52.218;1.480;2022-09-09T03:37:15;5.45;;;3.03;;
58214;SDS011;44011;52.218;1.480;2022-09-09T03:39:42;8.13;;;2.95;;
58214;SDS011;44011;52.218;1.480;2022-09-09T03:42:08;11.15;;;3.17;;
58214;SDS011;44011;52.218;1.480;2022-09-09T03:44:33;9.02;;;3.15;;
58214;SDS011;44011;52.218;1.480;2022-09-09T03:46:59;8.93;;;3.08;;
58214;SDS011;44011;52.218;1.480;2022-09-09T03:49:25;9.50;;;3.47;;
58214;SDS011;44011;52.218;1.480;2022-09-09T03:51:54;11.57;;;3.35;;
58214;SDS011;44011;52.218;1.480;2022-09-09T03:54:22;7.30;;;3.38;;
58214;SDS011;44011;52.218;1.480;2022-09-09T03:56:48;8.25;;;3.75;;
58214;SDS011;44011;52.218;1.480;2022-09-09T03:59:13;11.52;;;3.88;;
58214;SDS011;44011;52.218;1.480;2022-09-09T04:01:39;11.32;;;3.38;;
58214;SDS011;44011;52.218;1.480;2022-09-09T04:04:05;8.73;;;2.92;;
58214;SDS011;44011;52.218;1.480;2022-09-09T04:06:30;8.07;;;3.08;;
58214;SDS011;44011;52.218;1.480;2022-09-09T04:08:56;9.95;;;3.40;;
58214;SDS011;44011;52.218;1.480;2022-09-09T04:11:21;7.55;;;3.65;;
58214;SDS011;44011;52.218;1.480;2022-09-09T04:13:47;10.20;;;3.53;;
58214;SDS011;44011;52.218;1.480;2022-09-09T04:16:13;7.03;;;3.13;;
58214;SDS011;44011;52.218;1.480;2022-09-09T04:18:38;7.25;;;3.67;;
58214;SDS011;44011;52.218;1.480;2022-09-09T04:21:04;10.98;;;3.42;;
58214;SDS011;44011;52.218;1.480;2022-09-09T04:23:31;9.02;;;3.80;;
58214;SDS011;44011;52.218;1.480;2022-09-09T04:25:59;8.88;;;3.63;;
58214;SDS011;44011;52.218;1.480;2022-09-09T04:28:27;13.68;;;4.00;;
58214;SDS011;44011;52.218;1.480;2022-09-09T04:30:56;13.98;;;5.90;;
58214;SDS011;44011;52.218;1.480;2022-09-09T04:33:23;14.13;;;5.30;;
58214;SDS011;44011;52.218;1.480;2022-09-09T04:35:52;13.15;;;5.75;;
58214;SDS011;44011;52.218;1.480;2022-09-09T04:38:19;10.38;;;4.90;;
58214;SDS011;44011;52.218;1.480;2022-09-09T04:40:48;11.65;;;5.13;;
58214;SDS011;44011;52.218;1.480;2022-09-09T04:43:14;12.77;;;5.03;;
58214;SDS011;44011;52.218;1.480;2022-09-09T04:45:41;16.25;;;5.97;;
58214;SDS011;44011;52.218;1.480;2022-09-09T04:48:07;8.77;;;4.82;;
58214;SDS011;44011;52.218;1.480;2022-09-09T04:50:34;10.60;;;5.82;;
58214;SDS011;44011;52.218;1.480;2022-09-09T04:53:00;13.57;;;5.57;;
58214;SDS011;44011;52.218;1.480;2022-09-09T04:55:27;15.05;;;5.18;;
58214;SDS011;44011;52.218;1.480;2022-09-09T04:57:52;14.45;;;5.43;;
58214;SDS011;44011;52.218;1.480;2022-09-09T05:00:18;12.18;;;5.72;;
58214;SDS011;44011;52.218;1.480;2022-09-09T05:02:44;21.13;;;6.53;;
58214;SDS011;44011;52.218;1.480;2022-09-09T05:05:12;14.65;;;6.25;;
58214;SDS011;44011;52.218;1.480;2022-09-09T05:07:39;18.95;;;6.32;;
58214;SDS011;44011;52.218;1.480;2022-09-09T05:10:05;20.23;;;7.05;;
58214;SDS011;44011;52.218;1.480;2022-09-09T05:12:32;16.17;;;7.32;;
58214;SDS011;44011;52.218;1.480;2022-09-09T05:14:58;17.80;;;6.60;;
58214;SDS011;44011;52.218;1.480;2022-09-09T05:17:23;17.00;;;6.43;;
58214;SDS011;44011;52.218;1.480;2022-09-09T05:19:49;13.30;;;7.13;;
58214;SDS011;44011;52.218;1.480;2022-09-09T05:22:19;16.45;;;7.45;;
58214;SDS011;44011;52.218;1.480;2022-09-09T05:24:49;20.52;;;7.22;;
58214;SDS011;44011;52.218;1.480;2022-09-09T05:27:17;21.50;;;7.22;;
58214;SDS011;44011;52.218;1.480;2022-09-09T05:29:45;16.52;;;6.10;;
58214;SDS011;44011;52.218;1.480;2022-09-09T05:32:11;15.68;;;7.00;;
58214;SDS011;44011;52.218;1.480;2022-09-09T05:34:38;13.52;;;6.40;;
58214;SDS011;44011;52.218;1.480;2022-09-09T05:37:04;17.15;;;7.15;;
58214;SDS011;44011;52.218;1.480;2022-09-09T05:39:30;15.90;;;6.85;;
58214;SDS011;44011;52.218;1.480;2022-09-09T05:41:55;21.73;;;7.00;;
58214;SDS011;44011;52.218;1.480;2022-09-09T05:44:21;20.60;;;6.95;;
58214;SDS011;44011;52.218;1.480;2022-09-09T05:46:49;24.05;;;8.40;;
58214;SDS011;44011;52.218;1.480;2022-09-09T05:49:14;20.52;;;7.15;;
58214;SDS011;44011;52.218;1.480;2022-09-09T05:51:40;19.45;;;7.50;;
58214;SDS011;44011;52.218;1.480;2022-09-09T05:54:08;15.85;;;6.75;;
58214;SDS011;44011;52.218;1.480;2022-09-09T05:56:33;16.85;;;7.70;;
58214;SDS011;44011;52.218;1.480;2022-09-09T05:59:00;20.50;;;7.95;;
58214;SDS011;44011;52.218;1.480;2022-09-09T06:01:30;17.02;;;7.38;;
58214;SDS011;44011;52.218;1.480;2022-09-09T06:03:57;15.85;;;7.05;;
58214;SDS011;44011;52.218;1.480;2022-09-09T06:06:24;13.80;;;6.75;;
58214;SDS011;44011;52.218;1.480;2022-09-09T06:08:52;17.08;;;6.85;;
58214;SDS011;44011;52.218;1.480;2022-09-09T06:11:23;20.73;;;6.22;;
58214;SDS011;44011;52.218;1.480;2022-09-09T06:13:52;17.95;;;6.80;;
58214;SDS011;44011;52.218;1.480;2022-09-09T06:16:20;17.27;;;6.97;;
58214;SDS011;44011;52.218;1.480;2022-09-09T06:18:59;15.98;;;7.20;;
58214;SDS011;44011;52.218;1.480;2022-09-09T06:21:31;23.33;;;7.68;;
58214;SDS011;44011;52.218;1.480;2022-09-09T06:23:58;16.88;;;6.80;;
58214;SDS011;44011;52.218;1.480;2022-09-09T06:26:37;14.55;;;5.80;;
58214;SDS011;44011;52.218;1.480;2022-09-09T06:29:06;16.23;;;7.43;;
58214;SDS011;44011;52.218;1.480;2022-09-09T06:31:33;17.05;;;6.30;;
58214;SDS011;44011;52.218;1.480;2022-09-09T06:34:00;14.80;;;7.03;;
58214;SDS011;44011;52.218;1.480;2022-09-09T06:36:28;17.23;;;7.07;;
58214;SDS011;44011;52.218;1.480;2022-09-09T06:38:54;14.82;;;6.30;;
58214;SDS011;44011;52.218;1.480;2022-09-09T06:41:21;12.38;;;6.35;;
58214;SDS011;44011;52.218;1.480;2022-09-09T06:43:49;14.93;;;6.45;;
58214;SDS011;44011;52.218;1.480;2022-09-09T06:46:16;16.38;;;6.18;;
58214;SDS011;44011;52.218;1.480;2022-09-09T06:48:42;13.63;;;7.38;;
58214;SDS011;44011;52.218;1.480;2022-09-09T06:51:16;22.30;;;7.05;;
58214;SDS011;44011;52.218;1.480;2022-09-09T06:53:44;23.33;;;9.45;;
58214;SDS011;44011;52.218;1.480;2022-09-09T06:58:39;17.55;;;9.32;;
58214;SDS011;44011;52.218;1.480;2022-09-09T07:01:10;18.60;;;9.25;;
58214;SDS011;44011;52.218;1.480;2022-09-09T07:03:37;20.65;;;8.55;;
58214;SDS011;44011;52.218;1.480;2022-09-09T07:06:04;18.08;;;7.60;;
58214;SDS011;44011;52.218;1.480;2022-09-09T07:08:30;15.68;;;7.07;;
58214;SDS011;44011;52.218;1.480;2022-09-09T07:11:05;19.35;;;8.02;;
58214;SDS011;44011;52.218;1.480;2022-09-09T07:13:32;15.13;;;7.50;;
58214;SDS011;44011;52.218;1.480;2022-09-09T07:16:05;18.10;;;8.00;;
58214;SDS011;44011;52.218;1.480;2022-09-09T07:18:35;18.05;;;7.85;;
58214;SDS011;44011;52.218;1.480;2022-09-09T07:21:01;18.85;;;7.78;;
58214;SDS011;44011;52.218;1.480;2022-09-09T07:23:28;18.15;;;7.50;;
58214;SDS011;44011;52.218;1.480;2022-09-09T07:25:55;20.48;;;7.80;;
58214;SDS011;44011;52.218;1.480;2022-09-09T07:28:21;19.35;;;7.75;;
58214;SDS011;44011;52.218;1.480;2022-09-09T07:30:54;22.50;;;8.95;;
58214;SDS011;44011;52.218;1.480;2022-09-09T07:33:21;47.50;;;10.50;;
58214;SDS011;44011;52.218;1.480;2022-09-09T07:35:47;17.50;;;8.48;;
58214;SDS011;44011;52.218;1.480;2022-09-09T07:38:12;16.80;;;8.55;;
58214;SDS011;44011;52.218;1.480;2022-09-09T07:40:40;17.98;;;8.18;;
58214;SDS011;44011;52.218;1.480;2022-09-09T07:43:05;22.20;;;8.82;;
58214;SDS011;44011;52.218;1.480;2022-09-09T07:45:32;20.38;;;8.48;;
58214;SDS011;44011;52.218;1.480;2022-09-09T07:47:58;18.25;;;7.70;;
58214;SDS011;44011;52.218;1.480;2022-09-09T07:50:24;20.52;;;8.75;;
58214;SDS011;44011;52.218;1.480;2022-09-09T07:52:53;22.80;;;7.65;;
58214;SDS011;44011;52.218;1.480;2022-09-09T07:55:19;24.85;;;8.55;;
58214;SDS011;44011;52.218;1.480;2022-09-09T07:57:46;22.20;;;9.10;;
58214;SDS011;44011;52.218;1.480;2022-09-09T08:00:11;17.90;;;7.65;;
58214;SDS011;44011;52.218;1.480;2022-09-09T08:02:40;20.33;;;7.97;;
58214;SDS011;44011;52.218;1.480;2022-09-09T08:05:06;23.48;;;8.07;;
58214;SDS011;44011;52.218;1.480;2022-09-09T08:07:31;24.15;;;8.82;;
58214;SDS011;44011;52.218;1.480;2022-09-09T08:09:57;22.30;;;8.48;;
58214;SDS011;44011;52.218;1.480;2022-09-09T08:12:23;20.58;;;8.95;;
58214;SDS011;44011;52.218;1.480;2022-09-09T08:14:48;15.82;;;7.85;;
58214;SDS011;44011;52.218;1.480;2022-09-09T08:17:14;17.80;;;8.00;;
58214;SDS011;44011;52.218;1.480;2022-09-09T08:19:40;22.60;;;9.30;;
58214;SDS011;44011;52.218;1.480;2022-09-09T08:22:05;27.33;;;9.10;;
58214;SDS011;44011;52.218;1.480;2022-09-09T08:24:32;24.33;;;8.45;;
58214;SDS011;44011;52.218;1.480;2022-09-09T08:26:58;21.42;;;10.98;;
58214;SDS011;44011;52.218;1.480;2022-09-09T08:29:24;24.33;;;11.50;;
58214;SDS011;44011;52.218;1.480;2022-09-09T08:31:51;22.92;;;10.98;;
58214;SDS011;44011;52.218;1.480;2022-09-09T08:34:22;23.75;;;11.15;;
58214;SDS011;44011;52.218;1.480;2022-09-09T08:36:49;18.38;;;10.38;;
58214;SDS011;44011;52.218;1.480;2022-09-09T08:39:16;29.77;;;8.77;;
58214;SDS011;44011;52.218;1.480;2022-09-09T08:44:26;16.58;;;7.07;;
58214;SDS011;44011;52.218;1.480;2022-09-09T08:52:49;17.98;;;7.05;;
58214;SDS011;44011;52.218;1.480;2022-09-09T08:55:49;19.10;;;7.30;;
58214;SDS011;44011;52.218;1.480;2022-09-09T09:01:00;17.13;;;7.75;;
58214;SDS011;44011;52.218;1.480;2022-09-09T09:06:04;15.63;;;7.40;;
58214;SDS011;44011;52.218;1.480;2022-09-09T09:11:34;20.40;;;7.40;;
58214;SDS011;44011;52.218;1.480;2022-09-09T09:14:02;19.02;;;8.85;;
58214;SDS011;44011;52.218;1.480;2022-09-09T09:19:24;20.50;;;10.43;;
58214;SDS011;44011;52.218;1.480;2022-09-09T09:24:56;17.17;;;7.90;;
58214;SDS011;44011;52.218;1.480;2022-09-09T09:27:58;16.67;;;6.78;;
58214;SDS011;44011;52.218;1.480;2022-09-09T09:30:44;16.15;;;7.32;;
58214;SDS011;44011;52.218;1.480;2022-09-09T09:35:52;18.83;;;8.32;;
58214;SDS011;44011;52.218;1.480;2022-09-09T09:38:25;16.77;;;8.48;;
58214;SDS011;44011;52.218;1.480;2022-09-09T09:40:53;17.80;;;8.63;;
58214;SDS011;44011;52.218;1.480;2022-09-09T09:46:04;17.25;;;9.75;;
58214;SDS011;44011;52.218;1.480;2022-09-09T09:48:31;16.77;;;8.07;;
58214;SDS011;44011;52.218;1.480;2022-09-09T09:53:27;13.75;;;6.20;;
58214;SDS011;44011;52.218;1.480;2022-09-09T09:55:58;15.23;;;7.32;;
58214;SDS011;44011;52.218;1.480;2022-09-09T09:58:30;16.80;;;9.07;;
58214;SDS011;44011;52.218;1.480;2022-09-09T10:00:58;11.48;;;5.93;;
58214;SDS011;44011;52.218;1.480;2022-09-09T10:03:26;14.70;;;5.15;;
58214;SDS011;44011;52.218;1.480;2022-09-09T10:05:52;13.63;;;4.60;;
58214;SDS011;44011;52.218;1.480;2022-09-09T10:08:18;11.32;;;4.20;;
58214;SDS011;44011;52.218;1.480;2022-09-09T10:10:48;10.18;;;4.95;;
58214;SDS011;44011;52.218;1.480;2022-09-09T10:30:00;11.65;;;3.90;;
58214;SDS011;44011;52.218;1.480;2022-09-09T10:32:33;5.78;;;3.65;;
58214;SDS011;44011;52.218;1.480;2022-09-09T10:35:33;8.15;;;4.45;;
58214;SDS011;44011;52.218;1.480;2022-09-09T10:48:28;11.02;;;3.95;;
58214;SDS011;44011;52.218;1.480;2022-09-09T10:51:00;9.48;;;3.78;;
58214;SDS011;44011;52.218;1.480;2022-09-09T10:56:06;8.82;;;4.15;;
58214;SDS011;44011;52.218;1.480;2022-09-09T10:58:46;10.50;;;4.50;;
58214;SDS011;44011;52.218;1.480;2022-09-09T11:01:15;12.07;;;4.35;;
58214;SDS011;44011;52.218;1.480;2022-09-09T11:03:43;8.55;;;3.85;;
58214;SDS011;44011;52.218;1.480;2022-09-09T11:06:16;9.50;;;3.58;;
58214;SDS011;44011;52.218;1.480;2022-09-09T11:08:44;7.07;;;3.28;;
58214;SDS011;44011;52.218;1.480;2022-09-09T11:11:15;9.07;;;2.75;;
58214;SDS011;44011;52.218;1.480;2022-09-09T11:17:03;11.73;;;3.03;;
58214;SDS011;44011;52.218;1.480;2022-09-09T11:19:35;11.38;;;3.50;;
58214;SDS011;44011;52.218;1.480;2022-09-09T11:24:52;5.07;;;2.20;;
58214;SDS011;44011;52.218;1.480;2022-09-09T11:33:13;5.65;;;1.52;;
58214;SDS011;44011;52.218;1.480;2022-09-09T11:41:17;3.08;;;1.90;;
58214;SDS011;44011;52.218;1.480;2022-09-09T11:43:47;4.50;;;2.08;;
58214;SDS011;44011;52.218;1.480;2022-09-09T11:46:16;7.25;;;2.40;;
58214;SDS011;44011;52.218;1.480;2022-09-09T11:48:44;8.88;;;2.80;;
58214;SDS011;44011;52.218;1.480;2022-09-09T11:51:13;6.38;;;2.80;;
58214;SDS011;44011;52.218;1.480;2022-09-09T11:56:48;7.88;;;3.30;;
58214;SDS011;44011;52.218;1.480;2022-09-09T11:59:20;6.03;;;3.92;;
58214;SDS011;44011;52.218;1.480;2022-09-09T12:04:34;6.60;;;4.15;;
58214;SDS011;44011;52.218;1.480;2022-09-09T12:14:55;9.30;;;6.32;;
58214;SDS011;44011;52.218;1.480;2022-09-09T12:17:28;10.82;;;6.63;;
58214;SDS011;44011;52.218;1.480;2022-09-09T12:20:03;11.73;;;6.55;;
58214;SDS011;44011;52.218;1.480;2022-09-09T12:31:06;9.95;;;6.30;;
58214;SDS011;44011;52.218;1.480;2022-09-09T12:33:39;11.68;;;6.88;;
58214;SDS011;44011;52.218;1.480;2022-09-09T12:36:31;9.57;;;6.05;;
58214;SDS011;44011;52.218;1.480;2022-09-09T12:41:30;10.35;;;5.63;;
58214;SDS011;44011;52.218;1.480;2022-09-09T12:44:03;14.48;;;5.65;;
58214;SDS011;44011;52.218;1.480;2022-09-09T12:52:01;8.35;;;5.00;;
58214;SDS011;44011;52.218;1.480;2022-09-09T12:54:34;8.13;;;5.20;;
58214;SDS011;44011;52.218;1.480;2022-09-09T12:57:01;9.77;;;4.13;;
58214;SDS011;44011;52.218;1.480;2022-09-09T12:59:37;5.43;;;3.30;;
58214;SDS011;44011;52.218;1.480;2022-09-09T13:02:21;12.15;;;5.97;;
58214;SDS011;44011;52.218;1.480;2022-09-09T13:04:48;10.43;;;5.20;;
58214;SDS011;44011;52.218;1.480;2022-09-09T13:07:15;7.88;;;4.53;;
58214;SDS011;44011;52.218;1.480;2022-09-09T13:09:42;8.75;;;4.25;;
58214;SDS011;44011;52.218;1.480;2022-09-09T13:12:19;9.18;;;3.90;;
58214;SDS011;44011;52.218;1.480;2022-09-09T13:14:48;7.90;;;4.20;;
58214;SDS011;44011;52.218;1.480;2022-09-09T13:17:25;6.38;;;3.45;;
58214;SDS011;44011;52.218;1.480;2022-09-09T13:19:54;6.32;;;3.33;;
58214;SDS011;44011;52.218;1.480;2022-09-09T13:25:20;7.68;;;4.13;;
58214;SDS011;44011;52.218;1.480;2022-09-09T13:28:01;6.50;;;3.70;;
58214;SDS011;44011;52.218;1.480;2022-09-09T13:38:22;4.87;;;2.13;;
58214;SDS011;44011;52.218;1.480;2022-09-09T13:43:24;3.63;;;1.75;;
58214;SDS011;44011;52.218;1.480;2022-09-09T13:45:55;4.75;;;1.95;;
58214;SDS011;44011;52.218;1.480;2022-09-09T13:48:26;4.57;;;1.77;;
58214;SDS011;44011;52.218;1.480;2022-09-09T13:50:59;3.53;;;2.00;;
58214;SDS011;44011;52.218;1.480;2022-09-09T13:53:32;10.10;;;2.35;;
58214;SDS011;44011;52.218;1.480;2022-09-09T13:55:58;4.43;;;2.38;;
58214;SDS011;44011;52.218;1.480;2022-09-09T13:58:24;6.40;;;2.35;;
58214;SDS011;44011;52.218;1.480;2022-09-09T14:00:51;6.07;;;3.13;;
58214;SDS011;44011;52.218;1.480;2022-09-09T14:03:18;7.15;;;4.05;;
58214;SDS011;44011;52.218;1.480;2022-09-09T14:05:44;5.32;;;3.08;;
58214;SDS011;44011;52.218;1.480;2022-09-09T14:08:11;5.68;;;3.65;;
58214;SDS011;44011;52.218;1.480;2022-09-09T14:10:50;7.63;;;4.32;;
58214;SDS011;44011;52.218;1.480;2022-09-09T14:13:15;6.63;;;3.47;;
58214;SDS011;44011;52.218;1.480;2022-09-09T14:15:41;8.20;;;4.05;;
58214;SDS011;44011;52.218;1.480;2022-09-09T14:18:09;8.32;;;3.50;;
58214;SDS011;44011;52.218;1.480;2022-09-09T14:20:36;10.95;;;4.45;;
58214;SDS011;44011;52.218;1.480;2022-09-09T14:23:02;4.53;;;3.90;;
58214;SDS011;44011;52.218;1.480;2022-09-09T14:25:27;7.35;;;4.05;;
58214;SDS011;44011;52.218;1.480;2022-09-09T14:27:53;7.90;;;4.05;;
58214;SDS011;44011;52.218;1.480;2022-09-09T14:30:19;8.50;;;4.57;;
58214;SDS011;44011;52.218;1.480;2022-09-09T14:32:44;5.90;;;2.92;;
58214;SDS011;44011;52.218;1.480;2022-09-09T14:35:10;8.57;;;3.28;;
58214;SDS011;44011;52.218;1.480;2022-09-09T14:37:36;5.57;;;3.13;;
58214;SDS011;44011;52.218;1.480;2022-09-09T14:40:02;5.43;;;3.35;;
58214;SDS011;44011;52.218;1.480;2022-09-09T14:42:27;10.43;;;3.92;;
58214;SDS011;44011;52.218;1.480;2022-09-09T14:44:55;8.95;;;3.72;;
58214;SDS011;44011;52.218;1.480;2022-09-09T14:47:20;6.63;;;3.90;;
58214;SDS011;44011;52.218;1.480;2022-09-09T14:49:46;8.43;;;4.85;;
58214;SDS011;44011;52.218;1.480;2022-09-09T14:52:14;9.88;;;5.60;;
58214;SDS011;44011;52.218;1.480;2022-09-09T14:54:39;12.30;;;6.53;;
58214;SDS011;44011;52.218;1.480;2022-09-09T14:57:05;9.32;;;4.28;;
58214;SDS011;44011;52.218;1.480;2022-09-09T14:59:30;5.70;;;3.10;;
58214;SDS011;44011;52.218;1.480;2022-09-09T15:01:56;11.13;;;3.13;;
58214;SDS011;44011;52.218;1.480;2022-09-09T15:04:21;6.90;;;2.90;;
58214;SDS011;44011;52.218;1.480;2022-09-09T15:06:47;8.07;;;3.70;;
58214;SDS011;44011;52.218;1.480;2022-09-09T15:09:13;6.93;;;3.70;;
58214;SDS011;44011;52.218;1.480;2022-09-09T15:11:39;6.60;;;3.88;;
58214;SDS011;44011;52.218;1.480;2022-09-09T15:14:06;8.35;;;4.57;;
58214;SDS011;44011;52.218;1.480;2022-09-09T15:16:33;6.70;;;3.70;;
58214;SDS011;44011;52.218;1.480;2022-09-09T15:18:59;13.98;;;4.40;;
58214;SDS011;44011;52.218;1.480;2022-09-09T15:21:27;10.40;;;5.25;;
58214;SDS011;44011;52.218;1.480;2022-09-09T15:23:54;9.02;;;5.10;;
58214;SDS011;44011;52.218;1.480;2022-09-09T15:26:20;9.10;;;5.55;;
58214;SDS011;44011;52.218;1.480;2022-09-09T15:28:46;15.23;;;6.18;;
58214;SDS011;44011;52.218;1.480;2022-09-09T15:31:19;9.82;;;5.55;;
58214;SDS011;44011;52.218;1.480;2022-09-09T15:33:50;11.25;;;5.88;;
58214;SDS011;44011;52.218;1.480;2022-09-09T15:36:26;18.25;;;6.88;;
58214;SDS011;44011;52.218;1.480;2022-09-09T15:38:58;14.68;;;6.85;;
58214;SDS011;44011;52.218;1.480;2022-09-09T15:41:25;16.83;;;6.45;;
58214;SDS011;44011;52.218;1.480;2022-09-09T15:43:51;14.00;;;6.70;;
58214;SDS011;44011;52.218;1.480;2022-09-09T15:46:33;18.10;;;7.28;;
58214;SDS011;44011;52.218;1.480;2022-09-09T15:49:12;19.88;;;8.30;;
58214;SDS011;44011;52.218;1.480;2022-09-09T15:51:39;15.55;;;8.25;;
58214;SDS011;44011;52.218;1.480;2022-09-09T15:54:07;13.82;;;8.00;;
58214;SDS011;44011;52.218;1.480;2022-09-09T15:56:33;17.70;;;8.95;;
58214;SDS011;44011;52.218;1.480;2022-09-09T15:59:00;18.75;;;8.93;;
58214;SDS011;44011;52.218;1.480;2022-09-09T16:01:28;18.40;;;9.25;;
58214;SDS011;44011;52.218;1.480;2022-09-09T16:03:55;15.88;;;7.90;;
58214;SDS011;44011;52.218;1.480;2022-09-09T16:06:22;18.13;;;8.77;;
58214;SDS011;44011;52.218;1.480;2022-09-09T16:08:49;18.83;;;8.93;;
58214;SDS011;44011;52.218;1.480;2022-09-09T16:11:17;16.25;;;8.32;;
58214;SDS011;44011;52.218;1.480;2022-09-09T16:13:45;19.25;;;9.57;;
58214;SDS011;44011;52.218;1.480;2022-09-09T16:16:12;22.67;;;11.30;;
58214;SDS011;44011;52.218;1.480;2022-09-09T16:18:40;19.48;;;10.05;;
58214;SDS011;44011;52.218;1.480;2022-09-09T16:21:08;21.23;;;10.40;;
58214;SDS011;44011;52.218;1.480;2022-09-09T16:23:40;23.85;;;11.05;;
58214;SDS011;44011;52.218;1.480;2022-09-09T16:26:05;18.88;;;9.00;;
58214;SDS011;44011;52.218;1.480;2022-09-09T16:28:31;21.10;;;9.50;;
58214;SDS011;44011;52.218;1.480;2022-09-09T16:30:56;18.38;;;9.13;;
58214;SDS011;44011;52.218;1.480;2022-09-09T16:33:23;18.33;;;8.40;;
58214;SDS011;44011;52.218;1.480;2022-09-09T16:35:50;19.67;;;8.68;;
58214;SDS011;44011;52.218;1.480;2022-09-09T16:38:16;16.40;;;8.07;;
58214;SDS011;44011;52.218;1.480;2022-09-09T16:40:41;17.98;;;8.00;;
58214;SDS011;44011;52.218;1.480;2022-09-09T16:43:07;13.32;;;8.00;;
58214;SDS011;44011;52.218;1.480;2022-09-09T16:45:41;14.70;;;7.70;;
58214;SDS011;44011;52.218;1.480;2022-09-09T16:48:07;20.65;;;8.43;;
58214;SDS011;44011;52.218;1.480;2022-09-09T16:50:33;15.80;;;7.35;;
58214;SDS011;44011;52.218;1.480;2022-09-09T16:52:58;13.10;;;6.93;;
58214;SDS011;44011;52.218;1.480;2022-09-09T16:55:24;15.27;;;7.97;;
58214;SDS011;44011;52.218;1.480;2022-09-09T16:57:51;14.93;;;8.10;;
58214;SDS011;44011;52.218;1.480;2022-09-09T17:00:16;13.48;;;6.75;;
58214;SDS011;44011;52.218;1.480;2022-09-09T17:02:42;13.82;;;7.28;;
58214;SDS011;44011;52.218;1.480;2022-09-09T17:05:10;14.95;;;7.30;;
58214;SDS011;44011;52.218;1.480;2022-09-09T17:07:37;16.13;;;6.97;;
58214;SDS011;44011;52.218;1.480;2022-09-09T17:10:03;14.35;;;7.93;;
58214;SDS011;44011;52.218;1.480;2022-09-09T17:12:30;14.95;;;7.93;;
58214;SDS011;44011;52.218;1.480;2022-09-09T17:14:56;15.15;;;8.63;;
58214;SDS011;44011;52.218;1.480;2022-09-09T17:17:22;16.33;;;8.35;;
58214;SDS011;44011;52.218;1.480;2022-09-09T17:19:47;16.15;;;8.70;;
58214;SDS011;44011;52.218;1.480;2022-09-09T17:22:15;18.33;;;8.88;;
58214;SDS011;44011;52.218;1.480;2022-09-09T17:24:40;15.68;;;8.57;;
58214;SDS011;44011;52.218;1.480;2022-09-09T17:27:06;23.95;;;8.95;;
58214;SDS011;44011;52.218;1.480;2022-09-09T17:29:32;19.13;;;8.77;;
58214;SDS011;44011;52.218;1.480;2022-09-09T17:32:01;15.82;;;8.20;;
58214;SDS011;44011;52.218;1.480;2022-09-09T17:34:27;15.35;;;8.65;;
58214;SDS011;44011;52.218;1.480;2022-09-09T17:36:53;16.67;;;9.52;;
58214;SDS011;44011;52.218;1.480;2022-09-09T17:39:19;13.48;;;8.18;;
58214;SDS011;44011;52.218;1.480;2022-09-09T17:41:44;15.77;;;8.15;;
58214;SDS011;44011;52.218;1.480;2022-09-09T17:44:10;15.75;;;8.60;;